• Join FlightAware (Why Join?)
  • Login
  • US Flag 
09:07PM EDT


 

Airport Tracker/Info


-or-


 

Live Flight TrackerFlight Track Log ✈ LAN930 ✈ 18-Nov-2013 ✈ SCEL / SCL - SAME / MDZ

Flight Track Log - Related Links

Times and Time Zones

All times are in EST time to prevent confusion due to time zone crossing. See the LAN930 flight status page for this flight to view local times or setup timezone preferences in your user account.

Time Position Orientation Groundspeed Altitude Reporting Facility
EST Latitude Longitude Course Direction KTS MPH feet Rate Location/Type
07:41AM -33.4017 -70.8020 177° South 159 183 2,300  Level FlightAware ADS-B (SCEL / SCL)
07:41AM -33.4172 -70.8014 178° South 181 208 2,800 1,260 Climbing FlightAware ADS-B (SCEL / SCL)
07:42AM -33.4349 -70.8006 178° South 207 238 3,200 1,260 Climbing FlightAware ADS-B (SCEL / SCL)
07:42AM -33.4545 -70.7993 177° South 246 283 3,600 1,680 Climbing FlightAware ADS-B (SCEL / SCL)
07:42AM -33.4810 -70.7979 177° South 268 308 4,300 2,820 Climbing FlightAware ADS-B (SCEL / SCL)
07:43AM -33.5049 -70.7967 178° South 274 315 5,500 3,900 Climbing FlightAware ADS-B (SCEL / SCL)
07:43AM -33.5302 -70.7957 178° South 268 308 6,900 4,080 Climbing FlightAware ADS-B (SCEL / SCL)
07:43AM -33.5554 -70.7944 178° South 263 303 8,300 3,600 Climbing FlightAware ADS-B (SCEL / SCL)
07:44AM -33.5810 -70.7930 177° South 270 311 9,300 2,880 Climbing FlightAware ADS-B (SCEL / SCL)
07:44AM -33.6443 -70.7887 177° South 294 338 11,700 3,060 Climbing FlightAware ADS-B (SCEL / SCL)
07:45AM -33.6829 -70.7859 177° South 286 329 13,500 2,700 Climbing FlightAware ADS-B (SCEL / SCL)
07:45AM -33.7112 -70.7752 162° South 305 351 14,000 1,260 Climbing FlightAware ADS-B (SCEL / SCL)
07:46AM -33.7282 -70.7437 123° Southeast 322 371 14,400 1,500 Climbing FlightAware ADS-B (SCEL / SCL)
07:46AM -33.7300 -70.7283 98° East 325 374 14,700 2,520 Climbing FlightAware ADS-B (SCEL / SCL)
07:46AM -33.7334 -70.6699 94° East 331 381 16,100 1,860 Climbing FlightAware ADS-B (SCEL / SCL)
07:47AM -33.7356 -70.6243 93° East 361 415 16,700 1,440 Climbing FlightAware ADS-B (SCEL / SCL)
07:48AM -33.7459 -70.4768 95° East 403 464 18,400 1,800 Climbing FlightAware ADS-B (SCEL / SCL)
07:49AM -33.7529 -70.3836 95° East 410 472 19,900 1,860 Climbing FlightAware ADS-B (SCEL / SCL)
07:49AM -33.7591 -70.2975 95° East 427 491 20,800 1,560 Climbing FlightAware ADS-B (SCEL / SCL)
07:50AM -33.7642 -70.2272 95° East 432 497 21,700 1,860 Climbing FlightAware ADS-B (SCEL / SCL)
07:50AM -33.7721 -70.1549 97° East 437 503 22,700 1,620 Climbing FlightAware ADS-B (SCEL / SCL)
07:51AM -33.7827 -70.0616 98° East 448 516 23,600 1,860 Climbing FlightAware ADS-B (SCEL / SCL)
07:51AM -33.7912 -69.9826 97° East 443 510 24,900 2,160 Climbing FlightAware ADS-B (SCEL / SCL)
07:52AM -33.8003 -69.8952 97° East 442 509 26,100 1,380 Climbing FlightAware ADS-B (SCEL / SCL)
07:52AM -33.8078 -69.8207 97° East 458 527 26,500 900 Climbing FlightAware ADS-B (SCEL / SCL)
07:53AM -33.8125 -69.7421 94° East 431 496 27,000 780 Climbing FlightAware ADS-B (SCEL / SCL)
07:53AM -33.8106 -69.7284 80° East 409 471 27,000  Level FlightAware ADS-B (SCEL / SCL)
07:56AM -33.7321 -69.6523 39° Northeast  Level Estimated
07:57AM -33.6994 -69.6207 39° Northeast  Level Estimated
07:58AM -33.6667 -69.5891 39° Northeast  Level Estimated
07:59AM -33.6339 -69.5575 39° Northeast  Level Estimated
08:00AM -33.6012 -69.5259 39° Northeast  Level Estimated
08:01AM -33.5684 -69.4943 39° Northeast  Level Estimated
08:02AM -33.5357 -69.4628 39° Northeast  Level Estimated
08:03AM -33.5029 -69.4313 39° Northeast  Level Estimated
08:04AM -33.4701 -69.3998 39° Northeast  Level Estimated
08:05AM -33.4373 -69.3684 39° Northeast  Level Estimated
08:06AM -33.4045 -69.3369 39° Northeast  Level Estimated
08:07AM -33.3717 -69.3055 39° Northeast  Level Estimated
08:08AM -33.3389 -69.2741 39° Northeast  Level Estimated
08:09AM -33.3061 -69.2428 39° Northeast  Level Estimated
08:10AM -33.2733 -69.2114 39° Northeast  Level Estimated
08:11AM -33.2405 -69.1801 39° Northeast  Level Estimated
08:12AM -33.2076 -69.1488 39° Northeast  Level Estimated
08:13AM -33.1748 -69.1176 39° Northeast  Level Estimated
08:14AM -33.1419 -69.0863 39° Northeast  Level Estimated
08:15AM -33.1091 -69.0551 39° Northeast  Level Estimated
08:16AM -33.0762 -69.0239 38° Northeast  Level Estimated
08:17AM -33.0433 -68.9927 38° Northeast  Level Estimated
08:18AM -33.0104 -68.9616 38° Northeast  Level Estimated
08:19AM -32.9775 -68.9305 38° Northeast  Level Estimated
08:20AM -32.9446 -68.8994 38° Northeast  Level Estimated
08:21AM -32.9117 -68.8683 38° Northeast  Level Estimated
08:22AM -32.8788 -68.8372 38° Northeast  Level Estimated